Time;durP1;ratioP1;P1;durP2;ratioP2;P2;SDS_P1;SDS_P2;PMS_P1;PMS_P2;Temp;Humidity;BMP_temperature;BMP_pressure;BME280_temperature;BME280_humidity;BME280_pressure;Samples;Min_cycle;Max_cycle;Signal;HPM_P1;HPM_P2
2022/10/20 00:00:41;;;;;;;1.33;0.70;;;6.80;99.90;;;;;;6143938;29;20381;-67
2022/10/20 00:03:48;;;;;;;7.55;1.10;;;6.80;99.90;;;;;;6144025;29;20295;-67
2022/10/20 00:06:53;;;;;;;1.63;1.08;;;6.80;99.90;;;;;;6144559;29;20316;-67
2022/10/20 00:09:58;;;;;;;3.40;1.20;;;6.80;99.90;;;;;;6143790;29;20472;-66
2022/10/20 00:13:02;;;;;;;1.48;0.90;;;6.80;99.90;;;;;;6123709;29;20268;-67
2022/10/20 00:16:08;;;;;;;2.92;0.95;;;6.80;99.90;;;;;;6120616;29;20271;-66
2022/10/20 00:19:15;;;;;;;4.75;1.05;;;6.80;99.90;;;;;;6119561;29;20300;-66
2022/10/20 00:22:20;;;;;;;3.10;1.00;;;6.70;99.90;;;;;;6120241;29;20272;-66
2022/10/20 00:25:24;;;;;;;2.78;1.08;;;6.70;99.90;;;;;;6119567;29;20300;-66
2022/10/20 00:28:29;;;;;;;2.60;1.10;;;6.70;99.90;;;;;;6119471;29;20300;-66
2022/10/20 00:31:35;;;;;;;2.60;0.90;;;6.80;99.90;;;;;;6120275;29;20282;-66
2022/10/20 00:34:41;;;;;;;1.85;1.00;;;6.70;99.90;;;;;;6118981;29;20304;-66
2022/10/20 00:37:46;;;;;;;1.10;1.00;;;6.70;99.90;;;;;;6119547;29;20276;-66
2022/10/20 00:40:51;;;;;;;2.75;0.90;;;6.70;99.90;;;;;;6119168;29;20295;-66
2022/10/20 00:43:58;;;;;;;0.88;0.88;;;6.70;99.90;;;;;;6119254;29;20480;-66
2022/10/20 00:47:03;;;;;;;9.10;1.27;;;6.70;99.90;;;;;;6119516;29;20268;-66
2022/10/20 00:50:15;;;;;;;1.15;1.00;;;6.70;99.90;;;;;;6118836;29;20304;-66
2022/10/20 00:53:22;;;;;;;1.88;1.08;;;6.70;99.90;;;;;;6119196;29;20307;-66
2022/10/20 00:56:27;;;;;;;2.65;1.00;;;6.70;99.90;;;;;;6119367;29;20280;-66
2022/10/20 00:59:34;;;;;;;3.70;1.00;;;6.70;99.90;;;;;;6119018;29;20303;-66
2022/10/20 01:02:39;;;;;;;2.70;0.90;;;6.60;99.90;;;;;;6119059;29;20275;-66
2022/10/20 01:05:45;;;;;;;0.80;0.80;;;6.50;99.90;;;;;;6118606;29;20480;-66
2022/10/20 01:08:51;;;;;;;5.28;1.00;;;6.60;99.90;;;;;;6118244;29;20599;-67
2022/10/20 01:12:05;;;;;;;5.20;1.23;;;6.50;99.90;;;;;;6129331;29;20267;-66
2022/10/20 01:15:19;;;;;;;5.15;1.00;;;6.40;99.90;;;;;;6142456;29;20295;-66
2022/10/20 01:18:30;;;;;;;1.55;1.00;;;6.40;99.90;;;;;;6142372;29;20303;-66
2022/10/20 01:21:55;;;;;;;4.55;1.00;;;6.40;99.90;;;;;;6142654;29;20570;-66
2022/10/20 01:25:11;;;;;;;3.53;1.35;;;6.40;99.90;;;;;;6142030;29;20448;-66
2022/10/20 01:28:23;;;;;;;0.90;0.90;;;6.40;99.90;;;;;;6142187;29;20328;-66
2022/10/20 01:31:33;;;;;;;1.63;1.00;;;6.40;99.90;;;;;;6142519;29;20271;-66
2022/10/20 01:34:44;;;;;;;1.00;1.00;;;6.40;99.90;;;;;;6141953;29;20307;-67
2022/10/20 01:38:06;;;;;;;0.63;0.63;;;6.40;99.90;;;;;;6142144;29;20267;-66
2022/10/20 01:41:17;;;;;;;1.00;1.00;;;6.40;99.90;;;;;;6141192;29;20279;-67
2022/10/20 01:44:27;;;;;;;2.85;0.80;;;6.40;99.90;;;;;;6141382;29;20307;-67
2022/10/20 01:47:33;;;;;;;0.75;0.75;;;6.40;99.90;;;;;;6141721;29;20275;-67
2022/10/20 01:50:39;;;;;;;1.10;0.98;;;6.40;99.90;;;;;;6141591;29;20303;-66
2022/10/20 01:53:43;;;;;;;0.80;0.80;;;6.40;99.90;;;;;;6141100;29;20295;-66
2022/10/20 01:57:00;;;;;;;1.15;0.90;;;6.40;99.90;;;;;;6141939;29;20267;-67
2022/10/20 02:00:09;;;;;;;0.80;0.80;;;6.40;99.90;;;;;;6141257;29;20306;-67
2022/10/20 02:03:32;;;;;;;0.90;0.90;;;6.40;99.90;;;;;;6141102;29;20271;-66
2022/10/20 02:06:43;;;;;;;2.22;0.80;;;6.50;99.90;;;;;;6141172;29;20444;-66
2022/10/20 02:09:50;;;;;;;2.10;0.88;;;6.50;99.90;;;;;;6140780;29;20295;-66
2022/10/20 02:12:59;;;;;;;7.72;1.10;;;6.40;99.90;;;;;;6122627;29;20268;-67
2022/10/20 02:16:14;;;;;;;5.97;1.10;;;6.40;99.90;;;;;;6116646;29;20277;-67
2022/10/20 02:19:22;;;;;;;2.30;1.00;;;6.40;99.90;;;;;;6117047;29;20303;-66
2022/10/20 02:22:28;;;;;;;0.73;0.73;;;6.30;99.90;;;;;;6116822;29;20277;-67
2022/10/20 02:25:34;;;;;;;0.80;0.80;;;6.30;99.90;;;;;;6117545;29;20299;-67
2022/10/20 02:28:41;;;;;;;4.95;0.88;;;6.30;99.90;;;;;;6116885;29;20305;-67
2022/10/20 02:31:47;;;;;;;1.00;1.00;;;6.30;99.90;;;;;;6117248;29;20320;-67
2022/10/20 02:34:52;;;;;;;6.40;1.08;;;6.30;99.90;;;;;;6116908;29;20304;-66
2022/10/20 02:37:58;;;;;;;0.80;0.80;;;6.30;99.90;;;;;;6117290;29;20271;-65
2022/10/20 02:41:02;;;;;;;3.72;0.90;;;6.30;99.90;;;;;;6116364;29;20452;-66
2022/10/20 02:44:07;;;;;;;1.67;0.80;;;6.20;99.90;;;;;;6116602;29;20299;-66
2022/10/20 02:47:13;;;;;;;0.77;0.77;;;6.20;99.90;;;;;;6117023;29;20588;-67
2022/10/20 02:50:19;;;;;;;2.77;0.80;;;6.20;99.90;;;;;;6116756;29;20308;-67
2022/10/20 02:53:23;;;;;;;0.75;0.75;;;6.20;99.90;;;;;;6116551;29;20295;-66
2022/10/20 02:56:28;;;;;;;1.80;0.80;;;6.20;99.90;;;;;;6116748;29;20275;-66
2022/10/20 02:59:34;;;;;;;0.77;0.77;;;6.20;99.90;;;;;;6116502;29;20307;-66
2022/10/20 03:02:41;;;;;;;0.85;0.85;;;6.20;99.90;;;;;;6129951;29;20295;-66
2022/10/20 03:05:46;;;;;;;0.90;0.90;;;6.20;99.90;;;;;;6120334;29;20291;-66
2022/10/20 03:08:51;;;;;;;0.80;0.80;;;6.10;99.90;;;;;;6116639;29;20312;-66
2022/10/20 03:11:55;;;;;;;1.00;1.00;;;6.10;99.90;;;;;;6133957;29;20287;-66
2022/10/20 03:15:00;;;;;;;0.80;0.80;;;6.10;99.90;;;;;;6140257;29;20294;-66
2022/10/20 03:18:07;;;;;;;0.90;0.90;;;6.20;99.90;;;;;;6139753;29;20307;-66
2022/10/20 03:21:11;;;;;;;0.80;0.80;;;6.20;99.90;;;;;;6093441;29;20272;-66
2022/10/20 03:24:17;;;;;;;1.37;0.80;;;6.20;99.90;;;;;;6092873;29;20301;-66
2022/10/20 03:27:21;;;;;;;1.85;0.90;;;6.30;99.90;;;;;;6092319;29;20301;-66
2022/10/20 03:30:26;;;;;;;0.80;0.80;;;6.20;99.90;;;;;;6092855;29;20288;-66
2022/10/20 03:33:33;;;;;;;0.75;0.75;;;6.20;99.90;;;;;;6093735;29;20304;-65
2022/10/20 03:36:38;;;;;;;2.20;0.80;;;6.10;99.90;;;;;;6108851;29;20267;-66
2022/10/20 03:39:43;;;;;;;0.80;0.80;;;6.00;99.90;;;;;;6120727;29;20304;-66
2022/10/20 03:42:48;;;;;;;0.80;0.80;;;6.00;99.90;;;;;;6120634;29;20591;-66
2022/10/20 03:46:02;;;;;;;4.23;0.77;;;6.00;99.90;;;;;;6121083;29;20280;-67
2022/10/20 03:49:08;;;;;;;0.90;0.90;;;6.10;99.90;;;;;;6120211;29;20304;-66
2022/10/20 03:52:13;;;;;;;0.85;0.85;;;6.10;99.90;;;;;;6120341;29;20480;-66
2022/10/20 03:55:19;;;;;;;1.10;1.10;;;6.10;99.90;;;;;;6120789;29;20272;-65
2022/10/20 03:58:24;;;;;;;2.37;0.90;;;6.10;99.90;;;;;;6120402;29;20307;-66
2022/10/20 04:01:31;;;;;;;4.03;1.03;;;6.10;99.90;;;;;;6120551;29;20275;-66
2022/10/20 04:04:38;;;;;;;4.50;0.80;;;6.10;99.90;;;;;;6119794;29;20303;-66
2022/10/20 04:07:43;;;;;;;1.10;0.80;;;6.00;99.90;;;;;;6096481;29;20300;-66
2022/10/20 04:10:48;;;;;;;0.87;0.87;;;6.00;99.90;;;;;;6096950;29;20628;-66
2022/10/20 04:13:53;;;;;;;3.20;1.00;;;6.00;99.90;;;;;;6096587;29;20481;-66
2022/10/20 04:16:58;;;;;;;0.90;0.90;;;6.00;99.90;;;;;;6096289;29;20277;-66
2022/10/20 04:20:06;;;;;;;0.90;0.90;;;5.90;99.90;;;;;;6096991;29;20273;-67
2022/10/20 04:23:12;;;;;;;1.23;1.02;;;5.80;99.90;;;;;;6096075;29;20316;-66
2022/10/20 04:26:17;;;;;;;0.80;0.80;;;5.90;99.90;;;;;;6096701;29;20277;-66
2022/10/20 04:29:22;;;;;;;0.83;0.83;;;5.80;99.90;;;;;;6096346;29;20304;-66
2022/10/20 04:32:26;;;;;;;0.80;0.80;;;5.80;99.90;;;;;;6095802;29;20305;-66
2022/10/20 04:35:33;;;;;;;0.93;0.93;;;5.80;99.90;;;;;;6096103;29;20293;-66
2022/10/20 04:38:38;;;;;;;0.80;0.80;;;5.80;99.90;;;;;;6079664;29;20304;-67
2022/10/20 04:41:43;;;;;;;0.70;0.70;;;5.80;99.90;;;;;;6096492;29;20284;-66
2022/10/20 04:44:48;;;;;;;0.88;0.88;;;5.80;99.90;;;;;;6094944;29;20516;-66
2022/10/20 04:47:53;;;;;;;2.40;0.90;;;5.70;99.90;;;;;;6095726;29;20305;-66
2022/10/20 04:51:05;;;;;;;0.80;0.80;;;5.70;99.90;;;;;;6095938;29;20288;-66
2022/10/20 04:54:10;;;;;;;0.80;0.80;;;5.60;99.90;;;;;;6095270;29;20309;-66
2022/10/20 04:57:14;;;;;;;0.90;0.90;;;5.70;99.90;;;;;;6095244;29;20308;-66
2022/10/20 05:00:19;;;;;;;1.00;1.00;;;5.70;99.90;;;;;;6095919;29;20419;-66
2022/10/20 05:03:24;;;;;;;1.07;1.07;;;5.70;99.90;;;;;;6095444;29;20301;-66
2022/10/20 05:06:33;;;;;;;1.00;0.90;;;5.70;99.90;;;;;;6095742;29;20341;-66
2022/10/20 05:09:37;;;;;;;0.80;0.80;;;5.80;99.90;;;;;;6095123;29;20551;-66
2022/10/20 05:12:42;;;;;;;0.90;0.90;;;5.70;99.90;;;;;;6094876;29;20296;-66
2022/10/20 05:15:52;;;;;;;0.73;0.73;;;5.80;99.90;;;;;;6095727;29;20276;-66
2022/10/20 05:18:57;;;;;;;1.10;1.00;;;5.70;99.90;;;;;;6095008;29;20305;-66
2022/10/20 05:22:03;;;;;;;3.57;0.80;;;5.80;99.90;;;;;;6094962;29;20277;-66
2022/10/20 05:25:09;;;;;;;0.80;0.80;;;5.80;99.90;;;;;;6095422;29;20277;-67
2022/10/20 05:28:34;;;;;;;0.80;0.80;;;5.80;99.90;;;;;;6094894;29;20311;-66
2022/10/20 05:31:42;;;;;;;1.03;0.93;;;5.70;99.90;;;;;;6095304;29;20296;-66
2022/10/20 05:34:47;;;;;;;0.80;0.80;;;5.80;99.90;;;;;;6088443;29;20304;-66
2022/10/20 05:37:53;;;;;;;0.80;0.80;;;5.80;99.90;;;;;;6071778;29;20300;-67
2022/10/20 05:41:07;;;;;;;0.70;0.70;;;5.80;99.90;;;;;;6071655;29;20269;-66
2022/10/20 05:44:12;;;;;;;0.85;0.85;;;5.80;99.90;;;;;;6071426;29;20297;-67
2022/10/20 05:47:18;;;;;;;3.10;1.47;;;5.70;99.90;;;;;;6070588;29;20297;-66
2022/10/20 05:50:22;;;;;;;1.00;1.00;;;5.70;99.90;;;;;;6071453;29;20296;-67
2022/10/20 05:53:29;;;;;;;3.63;1.80;;;5.70;99.90;;;;;;6070546;29;20336;-66
2022/10/20 05:56:34;;;;;;;4.77;1.80;;;5.80;99.90;;;;;;6071350;29;20277;-66
2022/10/20 05:59:39;;;;;;;2.53;1.67;;;5.70;99.90;;;;;;6071136;29;20456;-66
2022/10/20 06:02:44;;;;;;;8.63;2.13;;;5.70;99.90;;;;;;6054341;29;20238;-66
2022/10/20 06:05:49;;;;;;;7.13;2.10;;;5.80;99.90;;;;;;6070872;29;20301;-67
2022/10/20 06:08:58;;;;;;;4.77;1.70;;;5.80;99.90;;;;;;6070295;29;20296;-65
2022/10/20 06:12:04;;;;;;;4.73;1.70;;;5.80;99.90;;;;;;6074927;29;20296;-66
2022/10/20 06:15:10;;;;;;;4.37;1.77;;;5.80;99.90;;;;;;6094244;29;20567;-67
2022/10/20 06:18:17;;;;;;;1.47;1.37;;;5.80;99.90;;;;;;6093616;29;20480;-67
2022/10/20 06:21:25;;;;;;;4.57;1.83;;;5.70;99.90;;;;;;6094188;29;20277;-67
2022/10/20 06:24:31;;;;;;;2.17;1.40;;;5.70;99.90;;;;;;6093593;29;20348;-68
2022/10/20 06:27:35;;;;;;;1.80;1.00;;;5.80;99.90;;;;;;6093526;29;20493;-67
2022/10/20 06:30:40;;;;;;;4.50;1.80;;;5.80;99.90;;;;;;6093409;29;20456;-67
2022/10/20 06:33:46;;;;;;;5.73;1.60;;;5.90;99.90;;;;;;6093130;29;20304;-67
2022/10/20 06:36:51;;;;;;;8.10;1.70;;;5.90;99.90;;;;;;6093869;29;20429;-66
2022/10/20 06:39:57;;;;;;;5.50;1.60;;;5.80;99.90;;;;;;6093225;29;20284;-67
2022/10/20 06:43:02;;;;;;;1.98;1.50;;;5.80;99.90;;;;;;6093435;29;20300;-67
2022/10/20 06:46:10;;;;;;;6.23;1.50;;;5.90;99.90;;;;;;6093371;29;20276;-67
2022/10/20 06:49:15;;;;;;;2.10;1.30;;;5.70;99.90;;;;;;6092770;29;20304;-67
2022/10/20 06:52:20;;;;;;;1.93;1.23;;;5.80;99.90;;;;;;6093184;29;20304;-67
2022/10/20 06:55:26;;;;;;;1.43;1.33;;;5.80;99.90;;;;;;6093689;29;20276;-68
2022/10/20 06:58:32;;;;;;;2.10;1.23;;;5.90;99.90;;;;;;6092888;29;20595;-65
2022/10/20 07:01:38;;;;;;;1.97;1.43;;;5.90;99.90;;;;;;6093602;29;20288;-66
2022/10/20 07:04:43;;;;;;;7.35;3.72;;;5.90;99.90;;;;;;6093019;29;20492;-66
2022/10/20 07:07:48;;;;;;;1.23;1.20;;;5.90;99.90;;;;;;6108297;29;20307;-67
2022/10/20 07:11:05;;;;;;;2.33;1.30;;;6.00;99.90;;;;;;6128436;29;20267;-67
2022/10/20 07:14:13;;;;;;;2.97;1.17;;;5.90;99.90;;;;;;6139677;29;20296;-67
2022/10/20 07:17:17;;;;;;;4.60;3.10;;;6.00;99.90;;;;;;6139556;29;20295;-67
2022/10/20 07:20:22;;;;;;;2.85;2.67;;;6.00;99.90;;;;;;6139833;29;20274;-67
2022/10/20 07:23:30;;;;;;;1.55;1.45;;;6.10;99.90;;;;;;6139537;29;20474;-67
2022/10/20 07:26:38;;;;;;;1.85;1.23;;;6.00;99.90;;;;;;6139840;29;20537;-67
2022/10/20 07:29:43;;;;;;;1.00;1.00;;;6.00;99.90;;;;;;6139471;29;20299;-67
2022/10/20 07:32:47;;;;;;;2.40;1.60;;;6.00;99.90;;;;;;6131872;29;20478;-68
2022/10/20 07:35:52;;;;;;;6.33;1.87;;;6.10;99.90;;;;;;6140175;29;20276;-67
2022/10/20 07:38:59;;;;;;;3.40;1.80;;;6.20;99.90;;;;;;6139606;29;20294;-66
2022/10/20 07:42:05;;;;;;;1.80;1.70;;;6.20;99.90;;;;;;6139643;29;20448;-66
2022/10/20 07:45:11;;;;;;;2.65;1.40;;;6.20;99.90;;;;;;6139889;29;20278;-66
2022/10/20 07:48:15;;;;;;;3.08;1.20;;;6.30;99.90;;;;;;6139527;29;20302;-67
2022/10/20 07:51:29;;;;;;;1.45;1.42;;;6.20;99.90;;;;;;6139772;29;20263;-66
2022/10/20 07:54:35;;;;;;;2.35;1.00;;;6.30;99.90;;;;;;6139505;29;20318;-66
2022/10/20 07:57:41;;;;;;;5.20;1.70;;;6.30;99.90;;;;;;6139595;29;20291;-67
2022/10/20 08:00:46;;;;;;;1.65;1.23;;;6.30;99.90;;;;;;6132282;29;20274;-66
2022/10/20 08:03:51;;;;;;;0.93;0.93;;;6.30;99.90;;;;;;6139281;29;20362;-66
2022/10/20 08:06:55;;;;;;;2.33;1.90;;;6.30;99.90;;;;;;6139239;29;20312;-68
2022/10/20 08:10:00;;;;;;;1.75;1.02;;;6.40;99.90;;;;;;6135033;29;20544;-68
2022/10/20 08:13:07;;;;;;;0.98;0.98;;;6.30;99.90;;;;;;6115404;29;20307;-67
2022/10/20 08:16:14;;;;;;;1.95;1.00;;;6.40;99.90;;;;;;6116181;29;20276;-68
2022/10/20 08:19:18;;;;;;;0.90;0.90;;;6.40;99.90;;;;;;6116348;29;20300;-68
2022/10/20 08:22:35;;;;;;;2.28;0.98;;;6.40;99.90;;;;;;6119622;29;20292;-68
2022/10/20 08:25:41;;;;;;;2.83;1.40;;;6.50;99.90;;;;;;6120482;29;20268;-67
2022/10/20 08:28:48;;;;;;;1.40;1.10;;;6.50;99.90;;;;;;6119796;29;20615;-67
2022/10/20 08:31:53;;;;;;;1.10;1.10;;;6.50;99.90;;;;;;6119789;29;20271;-66
2022/10/20 08:34:57;;;;;;;1.90;1.23;;;6.50;99.90;;;;;;6119276;29;20339;-67
2022/10/20 08:38:05;;;;;;;1.20;1.20;;;6.60;99.90;;;;;;6102901;29;20480;-68
2022/10/20 08:41:18;;;;;;;1.75;1.20;;;6.60;99.90;;;;;;6119985;29;20271;-67
2022/10/20 08:44:27;;;;;;;1.90;1.20;;;6.70;99.90;;;;;;6119495;29;20315;-66
2022/10/20 08:47:36;;;;;;;2.30;1.00;;;6.70;99.90;;;;;;6119187;29;20311;-66
2022/10/20 08:50:46;;;;;;;1.48;0.90;;;6.70;99.90;;;;;;6119412;29;20288;-67
2022/10/20 08:53:55;;;;;;;1.40;1.33;;;6.70;99.90;;;;;;6119188;29;20304;-68
2022/10/20 08:56:59;;;;;;;1.15;1.15;;;6.70;99.90;;;;;;6118979;29;20552;-68
2022/10/20 09:00:17;;;;;;;1.23;1.23;;;6.70;99.90;;;;;;6119615;29;20264;-67
2022/10/20 09:03:27;;;;;;;1.00;1.00;;;6.80;99.90;;;;;;6119045;29;20296;-68
2022/10/20 09:06:32;;;;;;;0.80;0.80;;;6.80;99.90;;;;;;6119718;29;20324;-68
2022/10/20 09:09:36;;;;;;;2.53;0.85;;;6.90;99.90;;;;;;6120507;29;20307;-68
2022/10/20 09:12:43;;;;;;;1.17;1.00;;;6.90;99.90;;;;;;6142466;29;20300;-68
2022/10/20 09:15:53;;;;;;;3.13;1.20;;;6.90;99.90;;;;;;6142529;29;20291;-67
2022/10/20 09:19:00;;;;;;;1.30;1.30;;;7.00;99.90;;;;;;6142289;29;20300;-68
2022/10/20 09:22:07;;;;;;;1.42;1.30;;;6.90;99.90;;;;;;6142001;29;20282;-68
2022/10/20 09:25:17;;;;;;;1.20;1.20;;;7.00;99.90;;;;;;6142222;29;20275;-68
2022/10/20 09:28:25;;;;;;;2.60;1.38;;;7.00;99.90;;;;;;6142172;29;20299;-66
2022/10/20 09:31:35;;;;;;;3.30;1.10;;;7.10;99.90;;;;;;6141929;29;20267;-67
2022/10/20 09:34:40;;;;;;;1.27;1.17;;;7.10;99.90;;;;;;6141956;29;20369;-67
2022/10/20 09:37:47;;;;;;;0.90;0.90;;;7.20;99.90;;;;;;6141684;29;20303;-67
2022/10/20 09:41:09;;;;;;;2.45;0.90;;;7.20;99.90;;;;;;6141991;29;20267;-67
2022/10/20 09:44:22;;;;;;;0.90;0.90;;;7.20;99.90;;;;;;6141745;29;20302;-68
2022/10/20 09:47:29;;;;;;;1.63;1.10;;;7.30;99.90;;;;;;6141361;29;20367;-68
2022/10/20 09:50:37;;;;;;;0.90;0.90;;;7.40;99.90;;;;;;6142162;29;20271;-66
2022/10/20 09:53:52;;;;;;;1.10;1.10;;;7.40;99.90;;;;;;6141447;29;20449;-67
2022/10/20 09:57:05;;;;;;;1.05;1.05;;;7.40;99.90;;;;;;6140702;29;20562;-67
2022/10/20 10:00:24;;;;;;;2.28;0.90;;;7.40;99.90;;;;;;6142132;29;20271;-67
2022/10/20 10:03:44;;;;;;;0.80;0.80;;;7.50;99.90;;;;;;6140876;29;20298;-67
2022/10/20 10:06:49;;;;;;;1.30;1.30;;;7.50;99.90;;;;;;6141394;29;20299;-67
2022/10/20 10:09:59;;;;;;;2.35;1.38;;;7.50;99.90;;;;;;6137087;29;20300;-66
2022/10/20 10:13:23;;;;;;;1.25;1.17;;;7.60;99.90;;;;;;6117533;29;20311;-68
2022/10/20 10:16:29;;;;;;;1.23;1.20;;;7.50;99.90;;;;;;6117514;29;20292;-68
2022/10/20 10:19:35;;;;;;;1.10;1.10;;;7.60;99.90;;;;;;6117495;29;20367;-67
2022/10/20 10:22:40;;;;;;;3.25;1.10;;;7.70;99.90;;;;;;6116896;29;20296;-68
2022/10/20 10:25:45;;;;;;;2.33;1.05;;;7.80;99.90;;;;;;6109592;29;20462;-68
2022/10/20 10:28:58;;;;;;;2.33;1.10;;;7.80;99.90;;;;;;6116813;29;20449;-68
2022/10/20 10:32:14;;;;;;;0.82;0.82;;;7.80;99.90;;;;;;6116786;29;20276;-68
2022/10/20 10:35:26;;;;;;;0.90;0.90;;;7.90;99.90;;;;;;6117462;29;20296;-67
2022/10/20 10:38:30;;;;;;;2.97;1.10;;;7.90;99.90;;;;;;6116763;29;20309;-67
2022/10/20 10:41:53;;;;;;;0.82;0.82;;;8.00;99.90;;;;;;6117498;29;20272;-67
2022/10/20 10:45:08;;;;;;;0.98;0.98;;;8.00;99.90;;;;;;6115396;29;20275;-67
2022/10/20 10:48:59;;;;;;;2.25;0.80;;;8.00;99.90;;;;;;6116586;29;20296;-67
2022/10/20 10:52:21;;;;;;;0.98;0.98;;;8.10;99.90;;;;;;6075092;29;20280;-67
2022/10/20 10:55:28;;;;;;;1.55;0.93;;;8.10;99.90;;;;;;6116479;29;20367;-67
2022/10/20 10:58:57;;;;;;;2.05;1.00;;;8.10;99.90;;;;;;6116516;29;20296;-68
2022/10/20 11:02:52;;;;;;;0.90;0.90;;;8.20;99.90;;;;;;6116559;29;20271;-67
2022/10/20 11:06:11;;;;;;;1.45;0.80;;;8.30;99.90;;;;;;6091783;29;20308;-67
2022/10/20 11:09:28;;;;;;;0.70;0.70;;;8.40;99.90;;;;;;6116139;29;20300;-66
2022/10/20 11:12:58;;;;;;;1.05;0.90;;;8.50;99.90;;;;;;6093207;29;20297;-66
2022/10/20 11:16:28;;;;;;;2.33;1.15;;;8.50;99.90;;;;;;6092880;29;20300;-67
2022/10/20 11:19:59;;;;;;;1.48;1.05;;;8.50;99.90;;;;;;6092937;29;20296;-67
2022/10/20 11:23:53;;;;;;;4.13;0.80;;;8.60;99.90;;;;;;6092765;29;20607;-67
2022/10/20 11:27:04;;;;;;;0.80;0.80;;;8.70;99.90;;;;;;6089180;29;20599;-67
2022/10/20 11:30:17;;;;;;;1.00;1.00;;;8.70;99.90;;;;;;6092624;29;20293;-67
2022/10/20 11:33:25;;;;;;;0.90;0.90;;;8.70;99.90;;;;;;6092647;29;20298;-67
2022/10/20 11:36:35;;;;;;;1.45;1.00;;;8.80;99.90;;;;;;6092501;29;20292;-67
2022/10/20 11:39:46;;;;;;;2.17;0.93;;;8.80;99.90;;;;;;6092320;29;20300;-67
2022/10/20 11:42:59;;;;;;;2.47;1.00;;;8.80;99.90;;;;;;6092388;29;20294;-67
2022/10/20 11:46:08;;;;;;;6.20;1.10;;;8.80;99.90;;;;;;6092975;29;20272;-67
2022/10/20 11:49:13;;;;;;;1.10;1.10;;;8.80;99.90;;;;;;6092858;29;20300;-67
2022/10/20 11:53:04;;;;;;;1.55;1.00;;;8.90;99.90;;;;;;6092468;29;20292;-67
2022/10/20 11:56:32;;;;;;;0.80;0.80;;;8.90;99.90;;;;;;6029404;29;20313;-67
2022/10/20 12:00:29;;;;;;;2.55;0.73;;;8.90;99.90;;;;;;6097019;29;20320;-67
2022/10/20 12:04:05;;;;;;;0.80;0.80;;;9.00;99.90;;;;;;6083263;29;20296;-67
2022/10/20 12:07:51;;;;;;;3.30;0.90;;;8.90;99.90;;;;;;6079642;29;20305;-67
2022/10/20 12:11:21;;;;;;;0.80;0.80;;;8.90;99.90;;;;;;6085159;29;20589;-66
2022/10/20 12:14:30;;;;;;;0.60;0.60;;;9.00;99.90;;;;;;6096831;29;20467;-66
2022/10/20 12:17:38;;;;;;;0.70;0.70;;;9.00;99.90;;;;;;6096507;29;20301;-66
2022/10/20 12:21:01;;;;;;;0.70;0.70;;;8.90;99.90;;;;;;6097191;29;20280;-66
2022/10/20 12:24:32;;;;;;;1.45;0.80;;;8.90;99.90;;;;;;6096552;29;20300;-66
2022/10/20 12:27:36;;;;;;;1.80;0.75;;;9.00;99.90;;;;;;6096297;29;20296;-67
2022/10/20 12:30:44;;;;;;;2.22;1.10;;;9.00;99.90;;;;;;6096685;29;20268;-68
2022/10/20 12:34:02;;;;;;;1.20;1.20;;;9.00;99.90;;;;;;6096463;29;20308;-68
2022/10/20 12:37:09;;;;;;;2.25;0.90;;;9.00;99.90;;;;;;6096342;29;20309;-68
2022/10/20 12:40:25;;;;;;;1.15;0.82;;;9.00;99.90;;;;;;6096610;29;20272;-68
2022/10/20 12:43:49;;;;;;;0.80;0.80;;;9.00;99.90;;;;;;6095934;29;20296;-66
2022/10/20 12:46:58;;;;;;;1.38;1.00;;;9.00;99.90;;;;;;6095768;29;20280;-66
2022/10/20 12:50:16;;;;;;;2.88;0.70;;;9.00;99.90;;;;;;6096273;29;20276;-66
2022/10/20 12:53:25;;;;;;;2.03;1.20;;;9.00;99.90;;;;;;6095612;29;20536;-66
2022/10/20 12:56:36;;;;;;;1.55;0.77;;;9.10;99.90;;;;;;6096186;29;20312;-67
2022/10/20 12:59:41;;;;;;;1.45;0.85;;;9.10;99.90;;;;;;6095832;29;20300;-67
2022/10/20 13:02:55;;;;;;;4.47;0.82;;;9.10;99.90;;;;;;6095470;29;20289;-66
2022/10/20 13:06:03;;;;;;;1.10;1.00;;;9.10;99.90;;;;;;6086055;29;20303;-66
2022/10/20 13:09:22;;;;;;;5.57;1.40;;;9.10;99.90;;;;;;6118860;29;20296;-67
2022/10/20 13:12:29;;;;;;;4.95;1.27;;;9.10;99.90;;;;;;6095063;29;20383;-67
2022/10/20 13:15:38;;;;;;;5.03;1.50;;;9.10;99.90;;;;;;6095816;29;20272;-67
2022/10/20 13:18:48;;;;;;;5.57;1.27;;;9.10;99.90;;;;;;6078267;29;20484;-67
2022/10/20 13:21:55;;;;;;;6.03;1.25;;;9.10;99.90;;;;;;6095672;29;20344;-66
2022/10/20 13:25:01;;;;;;;5.18;1.27;;;9.00;99.90;;;;;;6094843;29;20268;-67
2022/10/20 13:28:16;;;;;;;5.82;1.23;;;9.00;99.90;;;;;;6095059;29;20325;-67
2022/10/20 13:31:25;;;;;;;3.75;0.93;;;9.10;99.90;;;;;;6095372;29;20449;-66
2022/10/20 13:34:38;;;;;;;4.68;1.55;;;9.10;99.90;;;;;;6094778;29;20297;-67
2022/10/20 13:37:55;;;;;;;2.42;1.00;;;9.10;99.90;;;;;;6094859;29;20402;-67
2022/10/20 13:41:07;;;;;;;1.60;0.85;;;9.10;99.90;;;;;;6095357;29;20268;-67
2022/10/20 13:44:26;;;;;;;3.03;1.00;;;9.10;99.90;;;;;;6094878;29;20305;-66
2022/10/20 13:47:50;;;;;;;2.85;1.10;;;9.10;99.90;;;;;;6094695;29;20310;-68
2022/10/20 13:50:58;;;;;;;5.32;1.30;;;9.10;99.90;;;;;;6095160;29;20276;-66
2022/10/20 13:54:05;;;;;;;1.25;1.15;;;9.10;99.90;;;;;;6094402;29;20481;-66
2022/10/20 13:57:25;;;;;;;0.88;0.82;;;9.10;99.90;;;;;;6094355;29;20324;-66
2022/10/20 14:00:33;;;;;;;0.88;0.80;;;9.10;99.90;;;;;;6094378;29;20272;-67
2022/10/20 14:03:43;;;;;;;1.08;1.08;;;9.10;99.90;;;;;;6094232;29;20296;-67
2022/10/20 14:06:48;;;;;;;2.83;0.98;;;9.00;99.90;;;;;;6094142;29;20304;-67
2022/10/20 14:09:58;;;;;;;1.98;0.70;;;9.10;99.90;;;;;;6098042;29;20305;-67
2022/10/20 14:13:08;;;;;;;1.40;0.82;;;9.10;99.90;;;;;;6117222;29;20295;-67
2022/10/20 14:16:20;;;;;;;1.45;1.10;;;9.10;99.90;;;;;;6117837;29;20276;-67
2022/10/20 14:19:26;;;;;;;9.40;1.13;;;9.10;99.90;;;;;;6117479;29;20295;-67
2022/10/20 14:22:32;;;;;;;2.92;1.08;;;9.00;99.90;;;;;;6117019;29;20296;-67
2022/10/20 14:25:40;;;;;;;4.45;1.40;;;9.00;99.90;;;;;;6117858;29;20271;-66
2022/10/20 14:28:46;;;;;;;0.90;0.90;;;9.00;99.90;;;;;;6117232;29;20304;-66
2022/10/20 14:31:51;;;;;;;3.38;1.17;;;9.00;99.90;;;;;;6117389;29;20276;-67
2022/10/20 14:34:58;;;;;;;1.80;1.00;;;9.00;99.90;;;;;;6116753;29;20591;-67
2022/10/20 14:38:07;;;;;;;4.50;1.05;;;8.90;99.90;;;;;;6117145;29;20303;-67
2022/10/20 14:41:25;;;;;;;1.48;1.30;;;9.00;99.90;;;;;;6117142;29;20276;-67
2022/10/20 14:44:30;;;;;;;3.10;1.52;;;8.90;99.90;;;;;;6116387;29;20311;-67
2022/10/20 14:47:40;;;;;;;8.45;1.40;;;8.90;99.90;;;;;;6116607;29;20297;-67
2022/10/20 14:50:44;;;;;;;7.43;1.95;;;8.90;99.90;;;;;;6117159;29;20273;-67
2022/10/20 14:53:49;;;;;;;6.25;2.03;;;8.90;99.90;;;;;;6116581;29;20299;-67
2022/10/20 14:56:58;;;;;;;5.53;1.70;;;8.80;99.90;;;;;;6117173;29;20268;-68
2022/10/20 15:00:32;;;;;;;5.55;1.38;;;8.80;99.90;;;;;;6115643;29;20271;-66
2022/10/20 15:03:37;;;;;;;4.15;1.52;;;8.80;99.90;;;;;;6116371;29;20299;-67
2022/10/20 15:06:42;;;;;;;3.67;1.63;;;8.80;99.90;;;;;;6116210;29;20319;-67
2022/10/20 15:09:50;;;;;;;6.57;1.80;;;8.80;99.90;;;;;;6096242;29;20471;-68
2022/10/20 15:12:56;;;;;;;3.67;1.50;;;8.80;99.90;;;;;;6115971;29;20473;-67
2022/10/20 15:16:03;;;;;;;4.63;1.88;;;8.60;99.90;;;;;;6116422;29;20568;-67
2022/10/20 15:19:36;;;;;;;7.32;1.70;;;8.50;99.90;;;;;;6116157;29;20303;-67
2022/10/20 15:22:42;;;;;;;8.43;2.00;;;8.50;99.90;;;;;;6083505;29;20296;-67
2022/10/20 15:25:51;;;;;;;6.05;1.50;;;8.50;99.90;;;;;;6116257;29;20276;-67
2022/10/20 15:28:57;;;;;;;3.58;1.90;;;8.40;99.90;;;;;;6116384;29;20300;-66
2022/10/20 15:32:02;;;;;;;11.32;1.95;;;8.40;99.90;;;;;;6120667;29;20272;-66
2022/10/20 15:35:12;;;;;;;3.50;1.20;;;8.40;99.90;;;;;;6121578;29;20271;-65
2022/10/20 15:38:16;;;;;;;3.80;1.88;;;8.30;99.90;;;;;;6121022;29;20423;-67
2022/10/20 15:41:25;;;;;;;1.20;1.10;;;8.30;99.90;;;;;;6121415;29;20271;-67
2022/10/20 15:44:31;;;;;;;3.17;1.10;;;8.30;99.90;;;;;;6120676;29;20506;-66
2022/10/20 15:47:35;;;;;;;7.88;1.20;;;8.30;99.90;;;;;;6120371;29;20320;-67
2022/10/20 15:50:41;;;;;;;1.17;1.17;;;8.30;99.90;;;;;;6120974;29;20276;-67
2022/10/20 15:53:48;;;;;;;2.25;1.40;;;8.20;99.90;;;;;;6120146;29;20307;-67
2022/10/20 15:56:52;;;;;;;2.38;1.45;;;8.30;99.90;;;;;;6120654;29;20276;-66
2022/10/20 15:59:59;;;;;;;3.90;1.38;;;8.20;99.90;;;;;;6120207;29;20296;-67
2022/10/20 16:03:04;;;;;;;3.15;1.30;;;8.20;99.90;;;;;;6120201;29;20291;-67
2022/10/20 16:06:12;;;;;;;3.15;1.50;;;8.20;99.90;;;;;;6120973;29;20318;-67
2022/10/20 16:09:16;;;;;;;2.03;1.83;;;8.20;99.90;;;;;;6120351;29;20304;-67
2022/10/20 16:12:21;;;;;;;7.32;1.90;;;8.10;99.90;;;;;;6143605;29;20294;-67
2022/10/20 16:15:28;;;;;;;6.45;1.80;;;8.10;99.90;;;;;;6144536;29;20275;-67
2022/10/20 16:18:35;;;;;;;4.72;2.05;;;8.10;99.90;;;;;;6143533;29;20571;-67
2022/10/20 16:21:40;;;;;;;7.18;2.08;;;8.10;99.90;;;;;;6144097;29;20279;-66
2022/10/20 16:24:46;;;;;;;4.93;2.10;;;8.00;99.90;;;;;;6143463;29;20299;-67
2022/10/20 16:27:52;;;;;;;3.20;2.40;;;8.10;99.90;;;;;;6143510;29;20295;-66
2022/10/20 16:31:07;;;;;;;6.90;2.55;;;8.00;99.90;;;;;;6143935;29;20271;-67
2022/10/20 16:34:13;;;;;;;3.50;2.00;;;8.00;99.90;;;;;;6143300;29;20305;-67
2022/10/20 16:37:19;;;;;;;7.05;2.63;;;8.00;99.90;;;;;;6143276;29;20291;-67
2022/10/20 16:40:24;;;;;;;8.65;3.00;;;7.90;99.90;;;;;;6142906;29;20296;-66